createdAt,value
2023-05-08T00:00:37.055Z,2.80
2023-05-08T00:01:39.482Z,2.25
2023-05-08T00:02:42.630Z,2.10
2023-05-08T00:03:45.459Z,5.47
2023-05-08T00:04:48.364Z,2.53
2023-05-08T00:05:50.859Z,2.75
2023-05-08T00:06:53.352Z,3.00
2023-05-08T00:08:01.216Z,3.63
2023-05-08T00:09:03.695Z,2.20
2023-05-08T00:10:07.210Z,3.15
2023-05-08T00:11:09.853Z,4.05
2023-05-08T00:12:12.220Z,2.40
2023-05-08T00:13:14.696Z,2.22
2023-05-08T00:14:17.116Z,2.15
2023-05-08T00:15:19.829Z,2.78
2023-05-08T00:16:22.381Z,2.53
2023-05-08T00:17:25.058Z,1.98
2023-05-08T00:18:27.528Z,2.67
2023-05-08T00:19:29.915Z,2.30
2023-05-08T00:20:34.297Z,2.65
2023-05-08T00:21:36.772Z,2.38
2023-05-08T00:22:39.162Z,2.17
2023-05-08T00:23:41.617Z,2.80
2023-05-08T00:24:44.226Z,2.13
2023-05-08T00:25:46.637Z,2.72
2023-05-08T00:26:48.982Z,4.32
2023-05-08T00:27:51.804Z,3.20
2023-05-08T00:28:54.313Z,1.77
2023-05-08T00:29:57.468Z,1.70
2023-05-08T00:31:01.886Z,3.00
2023-05-08T00:32:04.428Z,2.55
2023-05-08T00:33:06.860Z,2.25
2023-05-08T00:34:09.581Z,2.53
2023-05-08T00:35:12.267Z,4.35
2023-05-08T00:36:15.736Z,1.70
2023-05-08T00:37:18.327Z,2.15
2023-05-08T00:38:20.942Z,2.22
2023-05-08T00:39:23.359Z,1.88
2023-05-08T00:40:25.947Z,2.60
2023-05-08T00:41:30.057Z,1.42
2023-05-08T00:42:32.482Z,2.47
2023-05-08T00:43:35.837Z,2.35
2023-05-08T00:44:40.137Z,3.10
2023-05-08T00:45:43.721Z,2.08
2023-05-08T00:46:46.760Z,1.75
2023-05-08T00:47:50.931Z,1.92
2023-05-08T00:48:53.721Z,1.45
2023-05-08T00:49:56.563Z,2.47
2023-05-08T00:51:00.178Z,2.00
2023-05-08T00:52:08.517Z,2.05
2023-05-08T00:53:12.532Z,1.85
2023-05-08T00:54:16.040Z,2.85
2023-05-08T00:55:19.558Z,2.15
2023-05-08T00:56:24.088Z,1.95
2023-05-08T00:57:29.596Z,3.13
2023-05-08T00:58:32.976Z,2.58
2023-05-08T00:59:36.642Z,1.52
2023-05-08T01:00:41.838Z,2.65
2023-05-08T01:01:44.942Z,2.22
2023-05-08T01:02:47.642Z,3.80
2023-05-08T01:03:51.108Z,1.65
2023-05-08T01:04:54.798Z,1.55
2023-05-08T01:05:57.552Z,1.83
2023-05-08T01:07:01.171Z,2.03
2023-05-08T01:08:03.952Z,1.30
2023-05-08T01:09:07.799Z,1.50
2023-05-08T01:10:11.698Z,1.95
2023-05-08T01:11:30.813Z,4.10
2023-05-08T01:13:06.849Z,1.83
2023-05-08T01:14:21.551Z,1.45
2023-05-08T01:15:33.041Z,1.60
2023-05-08T01:16:40.256Z,1.48
2023-05-08T01:18:02.529Z,1.83
2023-05-08T01:19:50.887Z,3.05
2023-05-08T01:21:10.666Z,2.70
2023-05-08T01:22:12.998Z,1.50
2023-05-08T01:23:43.500Z,2.30
2023-05-08T01:25:21.567Z,3.15
2023-05-08T01:26:51.348Z,1.63
2023-05-08T01:27:57.281Z,1.83
2023-05-08T01:29:36.564Z,2.15
2023-05-08T01:30:58.567Z,1.35
2023-05-08T01:32:27.467Z,1.52
2023-05-08T01:33:41.505Z,1.77
2023-05-08T01:35:07.821Z,2.90
2023-05-08T01:36:19.054Z,1.92
2023-05-08T01:37:28.298Z,1.40
2023-05-08T01:38:40.069Z,1.25
2023-05-08T01:40:02.444Z,1.73
2023-05-08T01:41:16.741Z,1.40
2023-05-08T01:42:30.681Z,2.80
2023-05-08T01:44:01.202Z,1.60
2023-05-08T01:45:09.515Z,2.65
2023-05-08T01:46:19.179Z,2.17
2023-05-08T01:47:25.972Z,1.98
2023-05-08T01:48:56.324Z,1.80
2023-05-08T01:50:07.187Z,6.73
2023-05-08T01:51:17.173Z,6.57
2023-05-08T01:52:33.616Z,73.65
2023-05-08T01:53:43.522Z,37.55
2023-05-08T01:54:55.710Z,21.52
2023-05-08T01:56:03.898Z,20.23
2023-05-08T01:57:09.473Z,14.70
2023-05-08T01:58:13.162Z,8.25
2023-05-08T01:59:19.639Z,8.95
2023-05-08T02:00:24.799Z,4.55
2023-05-08T02:01:32.083Z,6.57
2023-05-08T02:02:36.104Z,4.15
2023-05-08T02:03:41.652Z,4.85
2023-05-08T02:04:45.881Z,3.83
2023-05-08T02:05:51.583Z,3.58
2023-05-08T02:06:57.936Z,5.40
2023-05-08T02:08:03.268Z,7.18
2023-05-08T02:09:09.277Z,2.72
2023-05-08T02:10:14.050Z,5.22
2023-05-08T02:11:18.112Z,1.95
2023-05-08T02:12:22.421Z,4.70
2023-05-08T02:13:27.528Z,1.80
2023-05-08T02:14:32.112Z,2.50
2023-05-08T02:15:36.647Z,2.03
2023-05-08T02:16:42.208Z,2.60
2023-05-08T02:17:48.924Z,31.00
2023-05-08T02:18:56.263Z,14.10
2023-05-08T02:20:03.402Z,20.42
2023-05-08T02:21:12.381Z,43.88
2023-05-08T02:22:17.156Z,51.53
2023-05-08T02:23:22.240Z,28.63
2023-05-08T02:24:25.852Z,16.73
2023-05-08T02:25:30.469Z,15.30
2023-05-08T02:26:35.204Z,20.10
2023-05-08T02:27:39.526Z,11.95
2023-05-08T02:28:42.722Z,8.88
2023-05-08T02:29:45.191Z,6.30
2023-05-08T02:30:51.620Z,5.88
2023-05-08T02:31:56.362Z,4.70
2023-05-08T02:33:00.972Z,9.93
2023-05-08T02:34:05.820Z,4.10
2023-05-08T02:35:09.957Z,4.85
2023-05-08T02:36:16.092Z,5.75
2023-05-08T02:37:21.797Z,3.28
2023-05-08T02:38:26.403Z,4.03
2023-05-08T02:39:31.468Z,2.55
2023-05-08T02:40:34.278Z,4.93
2023-05-08T02:41:40.732Z,4.40
2023-05-08T02:42:44.888Z,2.45
2023-05-08T02:43:48.438Z,2.85
2023-05-08T02:44:51.517Z,2.33
2023-05-08T02:46:15.843Z,2.78
2023-05-08T02:47:23.856Z,2.40
2023-05-08T02:48:41.043Z,4.63
2023-05-08T02:49:54.342Z,2.15
2023-05-08T02:51:03.099Z,4.55
2023-05-08T02:52:28.763Z,2.90
2023-05-08T02:53:47.914Z,5.28
2023-05-08T02:55:22.520Z,3.17
2023-05-08T02:56:53.556Z,12.23
2023-05-08T02:58:11.755Z,4.70
2023-05-08T02:59:18.984Z,27.77
2023-05-08T03:00:27.621Z,24.20
2023-05-08T03:01:44.251Z,14.93
2023-05-08T03:03:10.824Z,45.55
2023-05-08T03:04:24.400Z,41.72
2023-05-08T03:05:32.614Z,63.70
2023-05-08T03:06:40.395Z,53.58
2023-05-08T03:07:45.256Z,40.40
2023-05-08T03:08:50.491Z,28.23
2023-05-08T03:10:00.471Z,17.58
2023-05-08T03:11:22.943Z,15.52
2023-05-08T03:12:28.958Z,12.73
2023-05-08T03:13:34.442Z,9.85
2023-05-08T03:14:45.273Z,9.32
2023-05-08T03:15:57.484Z,8.68
2023-05-08T03:17:02.057Z,7.38
2023-05-08T03:18:10.416Z,10.90
2023-05-08T03:19:24.305Z,6.70
2023-05-08T03:20:32.770Z,7.50
2023-05-08T03:21:37.328Z,6.85
2023-05-08T03:22:42.008Z,4.78
2023-05-08T03:23:46.699Z,5.70
2023-05-08T03:24:50.293Z,4.65
2023-05-08T03:25:53.539Z,7.93
2023-05-08T03:26:56.928Z,4.78
2023-05-08T03:28:00.034Z,4.70
2023-05-08T03:29:05.069Z,6.50
2023-05-08T03:30:10.528Z,2.85
2023-05-08T03:31:20.841Z,5.00
2023-05-08T03:32:26.195Z,5.43
2023-05-08T03:33:29.617Z,2.75
2023-05-08T03:34:34.369Z,4.93
2023-05-08T03:35:38.204Z,7.43
2023-05-08T03:36:42.086Z,4.18
2023-05-08T03:37:44.731Z,4.15
2023-05-08T03:38:47.457Z,3.60
2023-05-08T03:39:51.888Z,6.65
2023-05-08T03:40:54.430Z,3.22
2023-05-08T03:41:57.664Z,19.17
2023-05-08T03:43:01.933Z,50.67
2023-05-08T03:44:05.105Z,48.10
2023-05-08T03:45:10.754Z,31.98
2023-05-08T03:46:13.991Z,22.88
2023-05-08T03:47:18.689Z,21.42
2023-05-08T03:48:22.712Z,32.35
2023-05-08T03:49:26.508Z,28.35
2023-05-08T03:50:29.439Z,23.77
2023-05-08T03:51:32.458Z,12.68
2023-05-08T03:52:35.072Z,13.65
2023-05-08T03:53:37.538Z,14.38
2023-05-08T03:54:40.644Z,14.75
2023-05-08T03:55:43.512Z,14.95
2023-05-08T03:56:47.838Z,14.88
2023-05-08T03:58:06.251Z,15.15
2023-05-08T03:59:17.291Z,12.27
2023-05-08T04:00:27.472Z,13.68
2023-05-08T04:01:41.822Z,16.20
2023-05-08T04:02:52.417Z,12.20
2023-05-08T04:04:16.332Z,12.55
2023-05-08T04:05:41.545Z,11.88
2023-05-08T04:06:52.841Z,14.45
2023-05-08T04:08:15.750Z,11.82
2023-05-08T04:09:31.355Z,14.50
2023-05-08T04:11:02.399Z,13.35
2023-05-08T04:12:15.007Z,10.88
2023-05-08T04:13:27.153Z,12.85
2023-05-08T04:14:43.722Z,10.73
2023-05-08T04:15:52.240Z,10.95
2023-05-08T04:17:05.947Z,11.73
2023-05-08T04:18:12.732Z,10.80
2023-05-08T04:19:24.121Z,11.25
2023-05-08T04:20:29.304Z,11.05
2023-05-08T04:21:36.428Z,11.30
2023-05-08T04:22:41.218Z,11.40
2023-05-08T04:23:46.003Z,12.10
2023-05-08T04:24:50.722Z,9.40
2023-05-08T04:25:55.759Z,10.85
2023-05-08T04:26:59.485Z,12.50
2023-05-08T04:28:04.116Z,10.38
2023-05-08T04:29:07.861Z,10.25
2023-05-08T04:30:11.674Z,10.82
2023-05-08T04:31:16.951Z,10.75
2023-05-08T04:32:21.627Z,9.82
2023-05-08T04:33:24.854Z,9.88
2023-05-08T04:34:29.097Z,8.65
2023-05-08T04:35:36.816Z,10.93
2023-05-08T04:36:39.662Z,8.68
2023-05-08T04:37:44.158Z,12.13
2023-05-08T04:38:46.964Z,10.02
2023-05-08T04:39:53.573Z,11.38
2023-05-08T04:40:56.438Z,9.30
2023-05-08T04:42:03.312Z,9.18
2023-05-08T04:43:07.462Z,13.45
2023-05-08T04:44:10.097Z,9.15
2023-05-08T04:45:13.039Z,11.85
2023-05-08T04:46:16.362Z,10.73
2023-05-08T04:47:19.087Z,34.50
2023-05-08T04:48:21.595Z,75.63
2023-05-08T04:49:24.061Z,104.85
2023-05-08T04:50:26.674Z,130.30
2023-05-08T04:51:29.469Z,128.63
2023-05-08T04:52:31.968Z,125.20
2023-05-08T04:53:34.461Z,96.60
2023-05-08T04:54:37.182Z,76.85
2023-05-08T04:55:40.380Z,58.10
2023-05-08T04:58:00.106Z,45.47
2023-05-08T05:03:00.234Z,22.35
2023-05-08T05:04:03.435Z,20.20
2023-05-08T05:06:27.738Z,24.08
2023-05-08T05:07:35.059Z,21.52
2023-05-08T05:08:39.100Z,17.85
2023-05-08T05:13:44.283Z,17.85
2023-05-08T05:14:47.386Z,16.92
2023-05-08T05:15:54.863Z,15.32
2023-05-08T05:17:00.839Z,14.90
2023-05-08T05:18:04.010Z,20.60
2023-05-08T05:19:08.124Z,24.60
2023-05-08T05:20:12.853Z,21.83
2023-05-08T05:21:15.608Z,20.80
2023-05-08T05:22:20.751Z,19.08
2023-05-08T05:23:23.254Z,21.40
2023-05-08T05:24:25.966Z,21.05
2023-05-08T05:25:28.610Z,19.10
2023-05-08T05:26:31.701Z,20.95
2023-05-08T05:27:37.374Z,16.77
2023-05-08T05:28:41.826Z,18.23
2023-05-08T05:29:44.539Z,18.23
2023-05-08T05:30:48.541Z,17.73
2023-05-08T05:31:51.214Z,16.30
2023-05-08T05:32:54.953Z,16.08
2023-05-08T05:36:31.999Z,15.85
2023-05-08T05:37:34.433Z,15.70
2023-05-08T05:38:37.075Z,17.20
2023-05-08T05:39:42.030Z,17.05
2023-05-08T05:40:45.126Z,23.55
2023-05-08T05:41:47.922Z,16.00
2023-05-08T05:42:51.078Z,13.82
2023-05-08T05:43:54.823Z,16.70
2023-05-08T05:44:57.856Z,16.70
2023-05-08T05:46:08.998Z,14.57
2023-05-08T05:47:12.646Z,14.43
2023-05-08T05:48:16.989Z,15.65
2023-05-08T05:49:21.882Z,14.10
2023-05-08T05:50:26.964Z,18.00
2023-05-08T05:51:30.506Z,16.25
2023-05-08T05:52:33.281Z,17.23
2023-05-08T05:53:39.965Z,21.50
2023-05-08T05:54:43.155Z,18.65
2023-05-08T05:55:46.311Z,17.83
2023-05-08T05:56:49.049Z,18.25
2023-05-08T05:57:51.541Z,19.25
2023-05-08T05:58:54.281Z,16.10
2023-05-08T05:59:56.891Z,17.15
2023-05-08T06:01:01.472Z,18.52
2023-05-08T06:02:06.726Z,16.55
2023-05-08T06:03:19.405Z,16.95
2023-05-08T06:06:55.340Z,16.38
2023-05-08T06:07:57.893Z,20.20
2023-05-08T06:09:00.679Z,18.17
2023-05-08T06:10:03.605Z,15.95
2023-05-08T06:11:06.192Z,17.50
2023-05-08T06:12:08.820Z,15.07
2023-05-08T06:13:11.648Z,16.60
2023-05-08T06:14:14.110Z,17.38
2023-05-08T06:15:16.721Z,16.27
2023-05-08T06:16:23.237Z,16.60
2023-05-08T06:17:26.152Z,14.70
2023-05-08T06:18:28.681Z,18.58
2023-05-08T06:19:31.265Z,14.70
2023-05-08T06:20:33.894Z,15.10
2023-05-08T06:21:36.672Z,15.45
2023-05-08T06:22:40.134Z,14.90
2023-05-08T06:23:42.944Z,13.88
2023-05-08T06:24:46.611Z,14.63
2023-05-08T06:25:49.560Z,15.30
2023-05-08T06:26:51.957Z,16.15
2023-05-08T06:27:54.448Z,14.98
2023-05-08T06:28:57.053Z,16.98
2023-05-08T06:29:59.642Z,13.75
2023-05-08T06:31:02.153Z,15.40
2023-05-08T06:32:05.051Z,16.60
2023-05-08T06:33:14.849Z,14.60
2023-05-08T06:35:33.887Z,27.17
2023-05-08T06:36:37.346Z,86.28
2023-05-08T06:37:40.780Z,78.32
2023-05-08T06:38:45.450Z,58.45
2023-05-08T06:39:54.698Z,48.65
2023-05-08T06:41:07.085Z,42.53
2023-05-08T06:42:12.118Z,41.10
2023-05-08T06:43:16.015Z,39.35
2023-05-08T06:44:18.530Z,40.13
2023-05-08T06:45:21.184Z,31.52
2023-05-08T06:46:23.779Z,32.92
2023-05-08T06:47:26.342Z,26.13
2023-05-08T06:48:29.216Z,28.95
2023-05-08T06:49:32.548Z,25.05
2023-05-08T06:50:37.976Z,23.30
2023-05-08T06:51:40.748Z,22.55
2023-05-08T06:52:43.194Z,20.65
2023-05-08T06:53:46.495Z,18.58
2023-05-08T06:54:48.997Z,21.30
2023-05-08T06:55:51.773Z,19.67
2023-05-08T06:56:54.679Z,20.35
2023-05-08T06:57:57.203Z,17.73
2023-05-08T07:01:33.512Z,17.42
2023-05-08T07:03:52.509Z,16.98
2023-05-08T07:04:54.994Z,19.70
2023-05-08T07:05:57.611Z,16.40
2023-05-08T07:07:00.841Z,18.15
2023-05-08T07:08:03.370Z,16.20
2023-05-08T07:09:05.896Z,17.33
2023-05-08T07:10:08.793Z,18.60
2023-05-08T07:11:11.431Z,19.10
2023-05-08T07:12:16.623Z,18.67
2023-05-08T07:13:21.935Z,16.88
2023-05-08T07:14:24.724Z,16.10
2023-05-08T07:15:27.325Z,16.23
2023-05-08T07:16:29.994Z,16.63
2023-05-08T07:17:32.874Z,17.60
2023-05-08T07:18:35.614Z,18.75
2023-05-08T07:19:38.501Z,16.15
2023-05-08T07:20:41.954Z,16.80
2023-05-08T07:21:46.162Z,16.50
2023-05-08T07:22:48.585Z,15.10
2023-05-08T07:23:53.697Z,16.40
2023-05-08T07:24:56.722Z,14.73
2023-05-08T07:25:59.469Z,16.30
2023-05-08T07:27:03.145Z,28.63
2023-05-08T07:28:05.829Z,13.57
2023-05-08T07:29:08.384Z,17.48
2023-05-08T07:30:12.309Z,15.45
2023-05-08T07:31:15.853Z,15.73
2023-05-08T07:32:18.404Z,15.68
2023-05-08T07:33:20.851Z,13.85
2023-05-08T07:34:23.295Z,12.82
2023-05-08T07:35:25.695Z,12.23
2023-05-08T07:36:28.289Z,14.30
2023-05-08T07:37:30.772Z,33.22
2023-05-08T07:38:33.183Z,54.83
2023-05-08T07:39:35.505Z,27.67
2023-05-08T07:40:37.867Z,23.77
2023-05-08T07:41:41.046Z,17.35
2023-05-08T07:42:45.201Z,18.52
2023-05-08T07:43:48.602Z,15.13
2023-05-08T07:44:54.994Z,16.77
2023-05-08T07:45:58.558Z,12.77
2023-05-08T07:47:01.670Z,10.82
2023-05-08T07:48:04.472Z,9.85
2023-05-08T07:49:07.667Z,10.27
2023-05-08T07:50:10.445Z,10.05
2023-05-08T07:51:13.455Z,7.55
2023-05-08T07:52:15.882Z,10.65
2023-05-08T07:53:18.605Z,7.55
2023-05-08T07:54:21.582Z,10.80
2023-05-08T07:55:24.030Z,8.07
2023-05-08T07:56:27.348Z,8.73
2023-05-08T07:57:43.338Z,10.50
2023-05-08T07:58:47.839Z,8.48
2023-05-08T07:59:50.146Z,7.78
2023-05-08T08:00:52.824Z,5.88
2023-05-08T08:01:55.289Z,8.38
2023-05-08T08:02:57.960Z,6.03
2023-05-08T08:04:00.804Z,6.03
2023-05-08T08:05:04.191Z,5.40
2023-05-08T08:06:06.806Z,5.78
2023-05-08T08:07:09.606Z,5.80
2023-05-08T08:08:12.010Z,7.13
2023-05-08T08:09:14.346Z,8.38
2023-05-08T08:10:17.827Z,8.25
2023-05-08T08:11:20.647Z,6.60
2023-05-08T08:12:23.807Z,8.25
2023-05-08T08:13:26.624Z,5.70
2023-05-08T08:14:29.595Z,8.00
2023-05-08T08:15:31.978Z,5.57
2023-05-08T08:16:34.368Z,5.90
2023-05-08T08:17:37.650Z,6.07
2023-05-08T08:18:40.267Z,6.18
2023-05-08T08:19:42.590Z,5.35
2023-05-08T08:20:45.058Z,5.32
2023-05-08T08:21:47.518Z,5.43
2023-05-08T08:22:49.928Z,5.28
2023-05-08T08:23:52.384Z,6.50
2023-05-08T08:24:57.828Z,4.88
2023-05-08T08:26:00.309Z,4.40
2023-05-08T08:27:04.144Z,6.38
2023-05-08T08:28:07.046Z,5.65
2023-05-08T08:29:09.525Z,4.75
2023-05-08T08:30:16.854Z,3.83
2023-05-08T08:31:20.235Z,4.63
2023-05-08T08:32:24.395Z,3.65
2023-05-08T08:33:29.953Z,4.57
2023-05-08T08:34:35.225Z,6.72
2023-05-08T08:35:38.365Z,6.40
2023-05-08T08:36:40.865Z,3.97
2023-05-08T08:39:21.406Z,5.65
2023-05-08T08:40:25.403Z,5.50
2023-05-08T08:41:28.162Z,5.28
2023-05-08T08:42:31.649Z,6.32
2023-05-08T08:43:35.246Z,3.95
2023-05-08T08:44:39.250Z,5.45
2023-05-08T08:45:42.442Z,5.85
2023-05-08T08:46:52.946Z,3.60
2023-05-08T08:48:00.457Z,11.57
2023-05-08T08:49:05.392Z,20.75
2023-05-08T08:50:13.616Z,87.55
2023-05-08T08:51:28.932Z,55.53
2023-05-08T08:52:35.438Z,30.92
2023-05-08T08:53:44.156Z,23.92
2023-05-08T08:54:49.221Z,21.73
2023-05-08T08:55:55.590Z,22.92
2023-05-08T08:57:01.860Z,33.38
2023-05-08T08:58:39.036Z,24.38
2023-05-08T08:59:44.323Z,23.95
2023-05-08T09:00:49.017Z,37.38
2023-05-08T09:01:56.338Z,36.58
2023-05-08T09:02:59.582Z,36.58
2023-05-08T09:04:02.821Z,22.80
2023-05-08T09:05:06.149Z,19.60
2023-05-08T09:06:09.502Z,20.45
2023-05-08T09:07:12.401Z,21.80
2023-05-08T09:08:15.208Z,19.58
2023-05-08T09:09:17.831Z,18.48
2023-05-08T09:10:22.041Z,15.73
2023-05-08T09:11:24.882Z,14.00
2023-05-08T09:12:27.302Z,11.40
2023-05-08T09:13:30.476Z,10.40
2023-05-08T09:14:34.360Z,13.07
2023-05-08T09:15:38.263Z,8.85
2023-05-08T09:16:41.021Z,9.13
2023-05-08T09:17:43.495Z,10.93
2023-05-08T09:18:46.102Z,8.77
2023-05-08T09:19:50.092Z,10.05
2023-05-08T09:20:52.894Z,10.07
2023-05-08T09:21:58.671Z,7.13
2023-05-08T09:23:04.439Z,7.57
2023-05-08T09:24:06.916Z,6.30
2023-05-08T09:25:09.955Z,5.82
2023-05-08T09:26:47.259Z,7.35
2023-05-08T09:27:50.025Z,6.10
2023-05-08T09:29:08.837Z,5.25
2023-05-08T09:30:14.592Z,5.35
2023-05-08T09:31:17.144Z,8.63
2023-05-08T09:32:19.874Z,9.77
2023-05-08T09:33:23.854Z,7.45
2023-05-08T09:34:30.904Z,17.95
2023-05-08T09:35:37.578Z,21.20
2023-05-08T09:36:41.931Z,15.50
2023-05-08T09:37:44.524Z,16.08
2023-05-08T09:38:47.094Z,18.35
2023-05-08T09:39:49.930Z,18.77
2023-05-08T09:41:10.012Z,22.90
2023-05-08T09:42:12.611Z,16.23
2023-05-08T09:43:15.041Z,10.93
2023-05-08T09:44:17.546Z,11.73
2023-05-08T09:45:28.346Z,8.80
2023-05-08T09:46:31.960Z,13.25
2023-05-08T09:47:37.414Z,9.02
2023-05-08T09:48:40.069Z,7.18
2023-05-08T09:50:02.508Z,7.18
2023-05-08T09:51:07.619Z,10.32
2023-05-08T09:52:15.867Z,8.60
2023-05-08T09:53:18.471Z,11.10
2023-05-08T09:54:21.084Z,6.85
2023-05-08T09:55:24.437Z,6.70
2023-05-08T09:56:34.549Z,8.63
2023-05-08T09:57:39.442Z,5.82
2023-05-08T09:58:44.061Z,9.18
2023-05-08T09:59:47.549Z,13.88
2023-05-08T10:00:50.040Z,10.50
2023-05-08T10:01:53.400Z,13.55
2023-05-08T10:03:01.526Z,13.95
2023-05-08T10:04:06.406Z,15.98
2023-05-08T10:05:34.655Z,21.73
2023-05-08T10:06:37.528Z,17.98
2023-05-08T10:07:41.384Z,13.63
2023-05-08T10:08:45.229Z,10.20
2023-05-08T10:10:01.470Z,8.80
2023-05-08T10:11:24.214Z,6.00
2023-05-08T10:12:30.625Z,9.02
2023-05-08T10:13:33.167Z,6.60
2023-05-08T10:14:35.999Z,8.70
2023-05-08T10:15:41.747Z,8.18
2023-05-08T10:16:46.743Z,6.78
2023-05-08T10:18:01.022Z,6.20
2023-05-08T10:19:09.365Z,7.13
2023-05-08T10:20:15.808Z,5.90
2023-05-08T10:21:20.351Z,5.57
2023-05-08T10:22:26.284Z,5.88
2023-05-08T10:23:29.422Z,5.05
2023-05-08T10:24:38.593Z,7.47
2023-05-08T10:25:46.166Z,6.45
2023-05-08T10:27:13.875Z,5.32
2023-05-08T10:28:31.957Z,4.80
2023-05-08T10:29:44.607Z,4.15
2023-05-08T10:30:50.722Z,4.35
2023-05-08T10:31:58.652Z,3.75
2023-05-08T10:33:09.450Z,5.53
2023-05-08T10:34:19.059Z,6.32
2023-05-08T10:35:22.783Z,5.03
2023-05-08T10:36:27.391Z,3.35
2023-05-08T10:37:31.193Z,4.05
2023-05-08T10:38:34.186Z,4.63
2023-05-08T10:39:37.276Z,3.28
2023-05-08T10:40:40.140Z,6.93
2023-05-08T10:41:44.874Z,7.50
2023-05-08T10:42:48.997Z,4.28
2023-05-08T10:43:52.028Z,3.25
2023-05-08T10:44:55.478Z,3.55
2023-05-08T10:45:59.713Z,8.63
2023-05-08T10:47:05.563Z,3.58
2023-05-08T10:48:29.353Z,5.95
2023-05-08T10:49:36.703Z,3.35
2023-05-08T10:50:45.923Z,3.30
2023-05-08T10:51:55.796Z,3.90
2023-05-08T10:53:17.636Z,3.58
2023-05-08T10:54:38.712Z,3.00
2023-05-08T10:55:44.781Z,3.72
2023-05-08T10:56:49.326Z,3.45
2023-05-08T10:58:17.322Z,4.03
2023-05-08T10:59:21.187Z,4.10
2023-05-08T11:00:23.681Z,3.53
2023-05-08T11:01:26.773Z,4.68
2023-05-08T11:02:32.133Z,3.53
2023-05-08T11:03:45.691Z,4.18
2023-05-08T11:04:48.469Z,4.45
2023-05-08T11:05:52.471Z,4.28
2023-05-08T11:06:55.184Z,3.10
2023-05-08T11:07:59.549Z,3.97
2023-05-08T11:09:02.067Z,2.85
2023-05-08T11:10:13.732Z,3.55
2023-05-08T11:11:28.046Z,3.20
2023-05-08T11:12:31.618Z,4.38
2023-05-08T11:13:36.631Z,3.63
2023-05-08T11:14:42.533Z,2.63
2023-05-08T11:15:50.737Z,3.25
2023-05-08T11:17:01.720Z,4.75
2023-05-08T11:18:06.929Z,3.22
2023-05-08T11:19:19.952Z,5.85
2023-05-08T11:20:42.262Z,10.52
2023-05-08T11:22:18.933Z,20.02
2023-05-08T11:23:26.032Z,17.17
2023-05-08T11:24:38.328Z,14.73
2023-05-08T11:25:44.928Z,14.65
2023-05-08T11:26:50.160Z,13.82
2023-05-08T11:27:52.482Z,14.15
2023-05-08T11:28:58.254Z,9.80
2023-05-08T11:30:35.083Z,12.45
2023-05-08T11:31:51.883Z,8.18
2023-05-08T11:32:59.739Z,5.72
2023-05-08T11:34:03.691Z,7.05
2023-05-08T11:35:11.180Z,8.20
2023-05-08T11:36:19.181Z,5.80
2023-05-08T11:37:24.242Z,5.65
2023-05-08T11:38:38.153Z,5.30
2023-05-08T11:39:40.555Z,5.00
2023-05-08T11:41:00.818Z,5.50
2023-05-08T11:42:33.828Z,4.18
2023-05-08T11:43:54.518Z,4.15
2023-05-08T11:45:10.847Z,3.47
2023-05-08T11:46:21.033Z,4.50
2023-05-08T11:47:30.598Z,3.40
2023-05-08T11:48:34.081Z,5.75
2023-05-08T11:49:37.175Z,3.33
2023-05-08T11:50:39.959Z,4.47
2023-05-08T11:51:45.038Z,4.25
2023-05-08T11:52:51.740Z,4.18
2023-05-08T11:53:54.174Z,3.65
2023-05-08T11:54:56.672Z,3.80
2023-05-08T11:56:00.438Z,3.67
2023-05-08T11:57:02.969Z,5.15
2023-05-08T11:58:17.771Z,4.18
2023-05-08T11:59:21.373Z,3.05
2023-05-08T12:00:23.949Z,4.50
2023-05-08T12:01:26.358Z,3.53
2023-05-08T12:02:43.020Z,6.95
2023-05-08T12:03:46.344Z,5.88
2023-05-08T12:04:49.115Z,2.80
2023-05-08T12:05:55.394Z,3.13
2023-05-08T12:06:58.899Z,4.47
2023-05-08T12:08:01.467Z,5.20
2023-05-08T12:09:10.610Z,3.42
2023-05-08T12:10:14.956Z,3.17
2023-05-08T12:11:26.722Z,5.68
2023-05-08T12:13:51.625Z,3.65
2023-05-08T12:14:54.176Z,3.20
2023-05-08T12:15:58.655Z,3.20
2023-05-08T12:17:02.712Z,3.03
2023-05-08T12:18:05.296Z,4.00
2023-05-08T12:19:12.410Z,3.45
2023-05-08T12:20:17.796Z,3.78
2023-05-08T12:21:21.599Z,2.40
2023-05-08T12:22:24.080Z,2.85
2023-05-08T12:23:29.620Z,3.50
2023-05-08T12:24:32.164Z,3.60
2023-05-08T12:25:34.544Z,3.88
2023-05-08T12:26:38.205Z,4.72
2023-05-08T12:27:40.966Z,4.68
2023-05-08T12:28:46.844Z,8.02
2023-05-08T12:29:50.110Z,21.55
2023-05-08T12:30:54.269Z,36.33
2023-05-08T12:31:56.907Z,42.80
2023-05-08T12:33:00.684Z,35.30
2023-05-08T12:34:04.902Z,35.55
2023-05-08T12:35:09.914Z,23.95
2023-05-08T12:36:13.702Z,20.45
2023-05-08T12:37:28.656Z,16.25
2023-05-08T12:38:31.226Z,20.95
2023-05-08T12:39:37.551Z,13.52
2023-05-08T12:40:55.715Z,11.32
2023-05-08T12:42:00.128Z,11.38
2023-05-08T12:43:04.078Z,11.73
2023-05-08T12:44:19.892Z,9.73
2023-05-08T12:45:24.836Z,12.57
2023-05-08T12:46:28.050Z,9.90
2023-05-08T12:47:30.787Z,12.57
2023-05-08T12:48:33.260Z,11.48
2023-05-08T12:49:37.336Z,10.23
2023-05-08T12:50:41.828Z,7.95
2023-05-08T12:51:47.189Z,8.35
2023-05-08T12:52:51.494Z,7.53
2023-05-08T12:53:55.115Z,6.63
2023-05-08T12:54:57.599Z,6.13
2023-05-08T12:56:04.524Z,8.07
2023-05-08T12:57:11.556Z,9.88
2023-05-08T12:58:15.538Z,9.00
2023-05-08T12:59:28.854Z,5.40
2023-05-08T13:00:53.861Z,9.18
2023-05-08T13:01:57.129Z,6.40
2023-05-08T13:02:59.772Z,10.43
2023-05-08T13:04:03.344Z,8.35
2023-05-08T13:05:06.391Z,11.90
2023-05-08T13:06:22.482Z,11.32
2023-05-08T13:07:24.930Z,10.93
2023-05-08T13:08:35.652Z,9.85
2023-05-08T13:09:38.723Z,14.55
2023-05-08T13:10:53.814Z,9.88
2023-05-08T13:11:57.037Z,12.40
2023-05-08T13:12:59.408Z,8.90
2023-05-08T13:14:01.915Z,9.43
2023-05-08T13:15:05.747Z,7.32
2023-05-08T13:16:08.405Z,10.57
2023-05-08T13:17:10.967Z,10.90
2023-05-08T13:18:13.802Z,15.35
2023-05-08T13:19:16.318Z,6.25
2023-05-08T13:20:18.778Z,11.45
2023-05-08T13:21:21.168Z,8.43
2023-05-08T13:22:26.572Z,8.43
2023-05-08T13:23:29.969Z,6.97
2023-05-08T13:24:32.337Z,8.13
2023-05-08T13:25:36.508Z,6.13
2023-05-08T13:26:38.932Z,6.25
2023-05-08T13:27:41.752Z,5.93
2023-05-08T13:28:44.180Z,7.07
2023-05-08T13:29:46.553Z,5.97
2023-05-08T13:30:48.913Z,7.82
2023-05-08T13:31:51.489Z,10.93
2023-05-08T13:32:54.775Z,11.95
2023-05-08T13:33:57.162Z,6.97
2023-05-08T13:35:01.074Z,6.05
2023-05-08T13:36:04.557Z,7.82
2023-05-08T13:37:07.133Z,5.45
2023-05-08T13:38:09.749Z,13.63
2023-05-08T13:39:12.387Z,8.52
2023-05-08T13:40:17.287Z,10.77
2023-05-08T13:41:21.050Z,8.20
2023-05-08T13:42:23.434Z,6.53
2023-05-08T13:43:25.907Z,6.15
2023-05-08T13:44:28.306Z,7.50
2023-05-08T13:45:32.409Z,6.68
2023-05-08T13:46:34.995Z,8.05
2023-05-08T13:47:37.602Z,6.32
2023-05-08T13:48:40.333Z,5.78
2023-05-08T13:49:44.171Z,5.38
2023-05-08T13:50:46.689Z,5.13
2023-05-08T13:51:56.517Z,5.05
2023-05-08T13:52:59.527Z,10.55
2023-05-08T13:54:01.974Z,10.60
2023-05-08T13:55:10.182Z,9.10
2023-05-08T13:56:13.089Z,6.25
2023-05-08T13:57:15.888Z,8.27
2023-05-08T13:58:18.291Z,6.57
2023-05-08T13:59:20.776Z,7.68
2023-05-08T14:00:23.606Z,6.40
2023-05-08T14:01:27.809Z,5.45
2023-05-08T14:02:30.512Z,5.53
2023-05-08T14:03:33.263Z,8.27
2023-05-08T14:04:36.297Z,7.40
2023-05-08T14:05:39.097Z,7.63
2023-05-08T14:06:42.009Z,7.38
2023-05-08T14:07:45.542Z,6.82
2023-05-08T14:08:51.476Z,4.20
2023-05-08T14:09:55.453Z,5.75
2023-05-08T14:10:58.191Z,4.90
2023-05-08T14:12:01.190Z,4.55
2023-05-08T14:13:03.938Z,5.07
2023-05-08T14:14:06.430Z,4.97
2023-05-08T14:15:09.963Z,4.53
2023-05-08T14:16:14.378Z,5.65
2023-05-08T14:17:16.836Z,6.57
2023-05-08T14:18:19.205Z,9.20
2023-05-08T14:19:21.581Z,9.10
2023-05-08T14:20:23.992Z,6.25
2023-05-08T14:21:27.778Z,5.55
2023-05-08T14:22:30.742Z,5.55
2023-05-08T14:23:33.214Z,8.25
2023-05-08T14:24:35.832Z,6.10
2023-05-08T14:25:38.980Z,5.20
2023-05-08T14:26:42.279Z,5.43
2023-05-08T14:27:45.038Z,6.55
2023-05-08T14:28:47.618Z,3.90
2023-05-08T14:29:50.373Z,4.30
2023-05-08T14:30:52.763Z,4.25
2023-05-08T14:31:55.458Z,7.30
2023-05-08T14:32:58.221Z,4.97
2023-05-08T14:34:00.832Z,5.05
2023-05-08T14:35:03.959Z,4.93
2023-05-08T14:36:07.107Z,4.95
2023-05-08T14:37:09.832Z,3.88
2023-05-08T14:38:13.202Z,4.18
2023-05-08T14:39:16.037Z,6.80
2023-05-08T14:40:18.871Z,4.88
2023-05-08T14:41:22.135Z,8.25
2023-05-08T14:42:24.663Z,11.38
2023-05-08T14:43:27.254Z,14.10
2023-05-08T14:44:30.387Z,13.48
2023-05-08T14:45:32.865Z,11.55
2023-05-08T14:46:35.629Z,10.13
2023-05-08T14:47:38.922Z,8.93
2023-05-08T14:48:41.575Z,9.98
2023-05-08T14:49:44.093Z,10.23
2023-05-08T14:50:46.673Z,6.22